Terminal Aerodrome Forecast
Issued by NWS Goodland, KS

Home | Current Version | Previous Version | Text Only | Print | Product List | Glossary On
Versions: 1 2 3 4 5 6 7 8 9 10 11 12 13 14
000
FTUS43 KGLD 190300 AAA
TAFGLD
TAF AMD
KGLD 190300Z 1903/1924 VRB04KT 6SM BR BKN060
      TEMPO 1904/1908 3SM BR SCT010
     FM191200 24004KT P6SM SCT010 SCT120
     FM192000 23010KT P6SM SCT200=

USA.gov is the U.S. government's official web portal to all federal, state and local government web resources and services.